sensor_id;sensor_type;location;lat;lon;timestamp;P1;durP1;ratioP1;P2;durP2;ratioP2
29238;SDS011;16267;48.194;11.546;2023-02-01T00:00:19;6.97;;;3.60;;
29238;SDS011;16267;48.194;11.546;2023-02-01T00:02:45;7.85;;;3.97;;
29238;SDS011;16267;48.194;11.546;2023-02-01T00:05:11;7.00;;;3.88;;
29238;SDS011;16267;48.194;11.546;2023-02-01T00:07:37;11.20;;;4.05;;
29238;SDS011;16267;48.194;11.546;2023-02-01T00:10:03;7.00;;;3.83;;
29238;SDS011;16267;48.194;11.546;2023-02-01T00:12:31;7.03;;;4.05;;
29238;SDS011;16267;48.194;11.546;2023-02-01T00:14:57;6.53;;;3.63;;
29238;SDS011;16267;48.194;11.546;2023-02-01T00:17:23;9.57;;;4.22;;
29238;SDS011;16267;48.194;11.546;2023-02-01T00:19:49;7.80;;;3.65;;
29238;SDS011;16267;48.194;11.546;2023-02-01T00:22:15;8.07;;;4.43;;
29238;SDS011;16267;48.194;11.546;2023-02-01T00:24:41;8.52;;;4.30;;
29238;SDS011;16267;48.194;11.546;2023-02-01T00:27:07;6.10;;;3.85;;
29238;SDS011;16267;48.194;11.546;2023-02-01T00:29:33;7.47;;;3.95;;
29238;SDS011;16267;48.194;11.546;2023-02-01T00:31:59;8.48;;;4.10;;
29238;SDS011;16267;48.194;11.546;2023-02-01T00:34:24;7.47;;;3.72;;
29238;SDS011;16267;48.194;11.546;2023-02-01T00:36:53;7.78;;;3.35;;
29238;SDS011;16267;48.194;11.546;2023-02-01T00:39:30;7.70;;;3.70;;
29238;SDS011;16267;48.194;11.546;2023-02-01T00:41:56;6.72;;;3.80;;
29238;SDS011;16267;48.194;11.546;2023-02-01T00:44:22;7.28;;;3.90;;
29238;SDS011;16267;48.194;11.546;2023-02-01T00:46:48;7.10;;;4.30;;
29238;SDS011;16267;48.194;11.546;2023-02-01T00:49:14;5.22;;;3.58;;
29238;SDS011;16267;48.194;11.546;2023-02-01T00:51:40;6.47;;;3.95;;
29238;SDS011;16267;48.194;11.546;2023-02-01T00:54:05;9.30;;;3.92;;
29238;SDS011;16267;48.194;11.546;2023-02-01T00:56:31;9.13;;;4.60;;
29238;SDS011;16267;48.194;11.546;2023-02-01T00:58:57;8.70;;;4.30;;
29238;SDS011;16267;48.194;11.546;2023-02-01T01:01:24;7.63;;;4.30;;
29238;SDS011;16267;48.194;11.546;2023-02-01T01:03:55;8.05;;;4.78;;
29238;SDS011;16267;48.194;11.546;2023-02-01T01:06:28;7.03;;;4.37;;
29238;SDS011;16267;48.194;11.546;2023-02-01T01:08:57;9.43;;;4.40;;
29238;SDS011;16267;48.194;11.546;2023-02-01T01:11:27;7.75;;;4.45;;
29238;SDS011;16267;48.194;11.546;2023-02-01T01:13:56;6.97;;;4.25;;
29238;SDS011;16267;48.194;11.546;2023-02-01T01:16:24;6.82;;;4.80;;
29238;SDS011;16267;48.194;11.546;2023-02-01T01:18:52;9.88;;;5.40;;
29238;SDS011;16267;48.194;11.546;2023-02-01T01:21:19;9.70;;;5.47;;
29238;SDS011;16267;48.194;11.546;2023-02-01T01:23:45;9.40;;;4.78;;
29238;SDS011;16267;48.194;11.546;2023-02-01T01:26:16;9.52;;;5.13;;
29238;SDS011;16267;48.194;11.546;2023-02-01T01:28:46;10.38;;;5.05;;
29238;SDS011;16267;48.194;11.546;2023-02-01T01:31:13;9.88;;;5.28;;
29238;SDS011;16267;48.194;11.546;2023-02-01T01:33:41;9.55;;;6.32;;
29238;SDS011;16267;48.194;11.546;2023-02-01T01:36:09;10.30;;;5.15;;
29238;SDS011;16267;48.194;11.546;2023-02-01T01:38:37;8.15;;;5.20;;
29238;SDS011;16267;48.194;11.546;2023-02-01T01:41:05;10.30;;;4.80;;
29238;SDS011;16267;48.194;11.546;2023-02-01T01:46:29;7.80;;;4.80;;
29238;SDS011;16267;48.194;11.546;2023-02-01T01:49:06;9.18;;;5.07;;
29238;SDS011;16267;48.194;11.546;2023-02-01T01:51:49;8.50;;;5.20;;
29238;SDS011;16267;48.194;11.546;2023-02-01T01:54:34;7.72;;;5.03;;
29238;SDS011;16267;48.194;11.546;2023-02-01T01:57:06;9.60;;;5.53;;
29238;SDS011;16267;48.194;11.546;2023-02-01T01:59:39;10.50;;;5.85;;
29238;SDS011;16267;48.194;11.546;2023-02-01T02:02:11;11.50;;;6.10;;
29238;SDS011;16267;48.194;11.546;2023-02-01T02:04:37;10.40;;;6.50;;
29238;SDS011;16267;48.194;11.546;2023-02-01T02:07:37;9.35;;;6.60;;
29238;SDS011;16267;48.194;11.546;2023-02-01T02:10:00;8.10;;;5.90;;
29238;SDS011;16267;48.194;11.546;2023-02-01T02:12:30;10.15;;;6.07;;
29238;SDS011;16267;48.194;11.546;2023-02-01T02:14:57;10.30;;;5.97;;
29238;SDS011;16267;48.194;11.546;2023-02-01T02:17:32;14.23;;;6.78;;
29238;SDS011;16267;48.194;11.546;2023-02-01T02:23:32;12.65;;;6.65;;
29238;SDS011;16267;48.194;11.546;2023-02-01T02:26:26;10.40;;;6.40;;
29238;SDS011;16267;48.194;11.546;2023-02-01T02:32:51;11.32;;;6.22;;
29238;SDS011;16267;48.194;11.546;2023-02-01T02:38:26;9.27;;;5.88;;
29238;SDS011;16267;48.194;11.546;2023-02-01T02:41:18;12.40;;;6.68;;
29238;SDS011;16267;48.194;11.546;2023-02-01T02:47:11;10.00;;;6.32;;
29238;SDS011;16267;48.194;11.546;2023-02-01T02:49:55;10.77;;;5.78;;
29238;SDS011;16267;48.194;11.546;2023-02-01T02:53:01;9.93;;;5.68;;
29238;SDS011;16267;48.194;11.546;2023-02-01T02:55:52;11.23;;;5.83;;
29238;SDS011;16267;48.194;11.546;2023-02-01T02:58:36;9.05;;;5.25;;
29238;SDS011;16267;48.194;11.546;2023-02-01T03:01:21;8.30;;;5.53;;
29238;SDS011;16267;48.194;11.546;2023-02-01T03:04:05;8.07;;;5.88;;
29238;SDS011;16267;48.194;11.546;2023-02-01T03:06:35;8.18;;;5.47;;
29238;SDS011;16267;48.194;11.546;2023-02-01T03:09:03;8.57;;;5.18;;
29238;SDS011;16267;48.194;11.546;2023-02-01T03:11:35;8.32;;;5.50;;
29238;SDS011;16267;48.194;11.546;2023-02-01T03:14:21;11.15;;;5.47;;
29238;SDS011;16267;48.194;11.546;2023-02-01T03:16:51;8.82;;;5.60;;
29238;SDS011;16267;48.194;11.546;2023-02-01T03:19:29;8.77;;;5.47;;
29238;SDS011;16267;48.194;11.546;2023-02-01T03:22:04;8.05;;;4.32;;
29238;SDS011;16267;48.194;11.546;2023-02-01T03:32:56;9.52;;;5.18;;
29238;SDS011;16267;48.194;11.546;2023-02-01T03:41:41;7.82;;;5.20;;
29238;SDS011;16267;48.194;11.546;2023-02-01T03:44:00;9.43;;;5.50;;
29238;SDS011;16267;48.194;11.546;2023-02-01T03:47:06;6.82;;;4.70;;
29238;SDS011;16267;48.194;11.546;2023-02-01T03:52:32;7.57;;;4.72;;
29238;SDS011;16267;48.194;11.546;2023-02-01T03:55:07;5.60;;;4.25;;
29238;SDS011;16267;48.194;11.546;2023-02-01T03:57:37;9.70;;;4.53;;
29238;SDS011;16267;48.194;11.546;2023-02-01T04:00:14;7.78;;;4.60;;
29238;SDS011;16267;48.194;11.546;2023-02-01T04:02:45;11.23;;;5.10;;
29238;SDS011;16267;48.194;11.546;2023-02-01T04:05:10;7.65;;;5.32;;
29238;SDS011;16267;48.194;11.546;2023-02-01T04:07:36;7.82;;;4.60;;
29238;SDS011;16267;48.194;11.546;2023-02-01T04:10:02;9.27;;;5.00;;
29238;SDS011;16267;48.194;11.546;2023-02-01T04:12:29;6.63;;;4.50;;
29238;SDS011;16267;48.194;11.546;2023-02-01T04:14:54;8.88;;;4.78;;
29238;SDS011;16267;48.194;11.546;2023-02-01T04:17:20;7.65;;;4.80;;
29238;SDS011;16267;48.194;11.546;2023-02-01T04:19:46;9.15;;;4.50;;
29238;SDS011;16267;48.194;11.546;2023-02-01T04:22:12;9.02;;;5.07;;
29238;SDS011;16267;48.194;11.546;2023-02-01T04:24:37;7.10;;;4.38;;
29238;SDS011;16267;48.194;11.546;2023-02-01T04:27:03;8.60;;;4.90;;
29238;SDS011;16267;48.194;11.546;2023-02-01T04:29:29;7.18;;;4.82;;
29238;SDS011;16267;48.194;11.546;2023-02-01T04:31:55;10.63;;;5.10;;
29238;SDS011;16267;48.194;11.546;2023-02-01T04:34:21;6.75;;;4.68;;
29238;SDS011;16267;48.194;11.546;2023-02-01T04:36:47;8.35;;;5.25;;
29238;SDS011;16267;48.194;11.546;2023-02-01T04:39:13;7.75;;;5.10;;
29238;SDS011;16267;48.194;11.546;2023-02-01T04:41:39;8.43;;;4.88;;
29238;SDS011;16267;48.194;11.546;2023-02-01T04:44:05;6.95;;;4.68;;
29238;SDS011;16267;48.194;11.546;2023-02-01T04:46:31;8.90;;;5.38;;
29238;SDS011;16267;48.194;11.546;2023-02-01T04:48:56;10.68;;;5.68;;
29238;SDS011;16267;48.194;11.546;2023-02-01T04:51:22;7.78;;;5.00;;
29238;SDS011;16267;48.194;11.546;2023-02-01T04:53:48;7.63;;;4.68;;
29238;SDS011;16267;48.194;11.546;2023-02-01T04:56:13;7.88;;;5.22;;
29238;SDS011;16267;48.194;11.546;2023-02-01T04:58:39;9.77;;;5.15;;
29238;SDS011;16267;48.194;11.546;2023-02-01T05:01:05;9.18;;;5.60;;
29238;SDS011;16267;48.194;11.546;2023-02-01T05:03:32;10.13;;;5.85;;
29238;SDS011;16267;48.194;11.546;2023-02-01T05:05:59;8.05;;;4.85;;
29238;SDS011;16267;48.194;11.546;2023-02-01T05:08:25;7.38;;;4.93;;
29238;SDS011;16267;48.194;11.546;2023-02-01T05:10:52;10.85;;;5.85;;
29238;SDS011;16267;48.194;11.546;2023-02-01T05:13:18;7.63;;;5.13;;
29238;SDS011;16267;48.194;11.546;2023-02-01T05:16:02;8.80;;;5.78;;
29238;SDS011;16267;48.194;11.546;2023-02-01T05:18:28;8.18;;;5.10;;
29238;SDS011;16267;48.194;11.546;2023-02-01T05:20:54;9.05;;;5.57;;
29238;SDS011;16267;48.194;11.546;2023-02-01T05:23:20;8.48;;;5.70;;
29238;SDS011;16267;48.194;11.546;2023-02-01T05:25:46;11.75;;;5.70;;
29238;SDS011;16267;48.194;11.546;2023-02-01T05:28:12;8.30;;;5.38;;
29238;SDS011;16267;48.194;11.546;2023-02-01T05:30:37;7.55;;;5.90;;
29238;SDS011;16267;48.194;11.546;2023-02-01T05:33:03;9.38;;;5.50;;
29238;SDS011;16267;48.194;11.546;2023-02-01T05:35:29;8.07;;;5.28;;
29238;SDS011;16267;48.194;11.546;2023-02-01T05:37:55;9.30;;;5.43;;
29238;SDS011;16267;48.194;11.546;2023-02-01T05:40:21;10.15;;;5.68;;
29238;SDS011;16267;48.194;11.546;2023-02-01T05:42:47;8.80;;;5.78;;
29238;SDS011;16267;48.194;11.546;2023-02-01T05:45:13;9.98;;;5.72;;
29238;SDS011;16267;48.194;11.546;2023-02-01T05:47:39;10.52;;;5.95;;
29238;SDS011;16267;48.194;11.546;2023-02-01T05:50:05;12.38;;;6.22;;
29238;SDS011;16267;48.194;11.546;2023-02-01T05:52:31;9.73;;;6.03;;
29238;SDS011;16267;48.194;11.546;2023-02-01T05:54:57;13.38;;;6.60;;
29238;SDS011;16267;48.194;11.546;2023-02-01T05:57:23;8.30;;;5.47;;
29238;SDS011;16267;48.194;11.546;2023-02-01T05:59:49;11.48;;;5.82;;
29238;SDS011;16267;48.194;11.546;2023-02-01T06:02:15;8.77;;;5.70;;
29238;SDS011;16267;48.194;11.546;2023-02-01T06:04:41;8.73;;;5.80;;
29238;SDS011;16267;48.194;11.546;2023-02-01T06:07:07;9.32;;;5.30;;
29238;SDS011;16267;48.194;11.546;2023-02-01T06:09:35;10.55;;;5.53;;
29238;SDS011;16267;48.194;11.546;2023-02-01T06:12:02;8.27;;;5.40;;
29238;SDS011;16267;48.194;11.546;2023-02-01T06:14:29;8.52;;;5.65;;
29238;SDS011;16267;48.194;11.546;2023-02-01T06:16:54;8.05;;;5.53;;
29238;SDS011;16267;48.194;11.546;2023-02-01T06:19:21;10.48;;;6.13;;
29238;SDS011;16267;48.194;11.546;2023-02-01T06:21:47;10.18;;;5.60;;
29238;SDS011;16267;48.194;11.546;2023-02-01T06:24:13;8.75;;;5.50;;
29238;SDS011;16267;48.194;11.546;2023-02-01T06:26:40;10.18;;;5.72;;
29238;SDS011;16267;48.194;11.546;2023-02-01T06:29:07;7.15;;;4.97;;
29238;SDS011;16267;48.194;11.546;2023-02-01T06:31:35;8.60;;;5.28;;
29238;SDS011;16267;48.194;11.546;2023-02-01T06:34:00;10.23;;;5.40;;
29238;SDS011;16267;48.194;11.546;2023-02-01T06:36:28;10.45;;;5.60;;
29238;SDS011;16267;48.194;11.546;2023-02-01T06:38:55;9.88;;;5.97;;
29238;SDS011;16267;48.194;11.546;2023-02-01T06:41:22;9.05;;;6.03;;
29238;SDS011;16267;48.194;11.546;2023-02-01T06:43:48;8.93;;;5.85;;
29238;SDS011;16267;48.194;11.546;2023-02-01T06:46:14;12.55;;;6.20;;
29238;SDS011;16267;48.194;11.546;2023-02-01T06:48:40;7.35;;;5.53;;
29238;SDS011;16267;48.194;11.546;2023-02-01T06:51:12;8.82;;;5.28;;
29238;SDS011;16267;48.194;11.546;2023-02-01T06:53:54;9.57;;;5.43;;
29238;SDS011;16267;48.194;11.546;2023-02-01T06:56:20;10.32;;;5.53;;
29238;SDS011;16267;48.194;11.546;2023-02-01T06:58:46;9.98;;;5.35;;
29238;SDS011;16267;48.194;11.546;2023-02-01T07:01:13;9.95;;;4.90;;
29238;SDS011;16267;48.194;11.546;2023-02-01T07:03:39;11.15;;;4.68;;
29238;SDS011;16267;48.194;11.546;2023-02-01T07:06:06;7.30;;;5.22;;
29238;SDS011;16267;48.194;11.546;2023-02-01T07:08:33;9.27;;;5.10;;
29238;SDS011;16267;48.194;11.546;2023-02-01T07:11:04;7.00;;;4.72;;
29238;SDS011;16267;48.194;11.546;2023-02-01T07:13:34;8.25;;;4.72;;
29238;SDS011;16267;48.194;11.546;2023-02-01T07:16:01;8.48;;;4.88;;
29238;SDS011;16267;48.194;11.546;2023-02-01T07:18:29;6.97;;;4.25;;
29238;SDS011;16267;48.194;11.546;2023-02-01T07:20:55;7.30;;;4.20;;
29238;SDS011;16267;48.194;11.546;2023-02-01T07:23:22;8.25;;;4.35;;
29238;SDS011;16267;48.194;11.546;2023-02-01T07:25:49;7.32;;;3.88;;
29238;SDS011;16267;48.194;11.546;2023-02-01T07:28:23;7.30;;;4.35;;
29238;SDS011;16267;48.194;11.546;2023-02-01T07:30:50;6.00;;;4.07;;
29238;SDS011;16267;48.194;11.546;2023-02-01T07:33:20;7.68;;;4.05;;
29238;SDS011;16267;48.194;11.546;2023-02-01T07:35:48;5.50;;;3.42;;
29238;SDS011;16267;48.194;11.546;2023-02-01T07:38:15;6.85;;;3.80;;
29238;SDS011;16267;48.194;11.546;2023-02-01T07:40:41;7.07;;;3.83;;
29238;SDS011;16267;48.194;11.546;2023-02-01T07:43:08;5.50;;;3.38;;
29238;SDS011;16267;48.194;11.546;2023-02-01T07:45:35;5.40;;;3.72;;
29238;SDS011;16267;48.194;11.546;2023-02-01T07:48:01;8.48;;;3.92;;
29238;SDS011;16267;48.194;11.546;2023-02-01T07:50:27;8.07;;;4.03;;
29238;SDS011;16267;48.194;11.546;2023-02-01T07:52:53;6.63;;;3.40;;
29238;SDS011;16267;48.194;11.546;2023-02-01T07:55:20;5.60;;;3.83;;
29238;SDS011;16267;48.194;11.546;2023-02-01T07:57:46;6.82;;;3.50;;
29238;SDS011;16267;48.194;11.546;2023-02-01T08:00:12;6.90;;;3.67;;
29238;SDS011;16267;48.194;11.546;2023-02-01T08:02:58;5.70;;;3.40;;
29238;SDS011;16267;48.194;11.546;2023-02-01T08:05:24;5.70;;;3.28;;
29238;SDS011;16267;48.194;11.546;2023-02-01T08:07:50;4.28;;;2.83;;
29238;SDS011;16267;48.194;11.546;2023-02-01T08:10:17;5.15;;;3.13;;
29238;SDS011;16267;48.194;11.546;2023-02-01T08:12:43;8.27;;;3.10;;
29238;SDS011;16267;48.194;11.546;2023-02-01T08:15:14;5.32;;;2.97;;
29238;SDS011;16267;48.194;11.546;2023-02-01T08:17:45;6.53;;;3.25;;
29238;SDS011;16267;48.194;11.546;2023-02-01T08:20:13;8.65;;;2.92;;
29238;SDS011;16267;48.194;11.546;2023-02-01T08:22:39;5.05;;;2.80;;
29238;SDS011;16267;48.194;11.546;2023-02-01T08:25:05;4.32;;;2.80;;
29238;SDS011;16267;48.194;11.546;2023-02-01T08:27:35;8.80;;;3.17;;
29238;SDS011;16267;48.194;11.546;2023-02-01T08:30:01;5.00;;;2.90;;
29238;SDS011;16267;48.194;11.546;2023-02-01T08:32:28;6.68;;;3.15;;
29238;SDS011;16267;48.194;11.546;2023-02-01T08:34:54;4.80;;;2.95;;
29238;SDS011;16267;48.194;11.546;2023-02-01T08:37:20;4.35;;;2.80;;
29238;SDS011;16267;48.194;11.546;2023-02-01T08:39:45;5.10;;;3.17;;
29238;SDS011;16267;48.194;11.546;2023-02-01T08:42:12;4.63;;;2.97;;
29238;SDS011;16267;48.194;11.546;2023-02-01T08:44:56;5.00;;;2.75;;
29238;SDS011;16267;48.194;11.546;2023-02-01T08:47:22;6.47;;;2.70;;
29238;SDS011;16267;48.194;11.546;2023-02-01T08:49:48;4.32;;;2.70;;
29238;SDS011;16267;48.194;11.546;2023-02-01T08:52:14;4.47;;;2.78;;
29238;SDS011;16267;48.194;11.546;2023-02-01T08:54:40;5.00;;;2.90;;
29238;SDS011;16267;48.194;11.546;2023-02-01T08:57:06;3.35;;;2.50;;
29238;SDS011;16267;48.194;11.546;2023-02-01T08:59:32;6.68;;;2.80;;
29238;SDS011;16267;48.194;11.546;2023-02-01T09:01:58;4.97;;;2.97;;
29238;SDS011;16267;48.194;11.546;2023-02-01T09:04:24;6.03;;;3.08;;
29238;SDS011;16267;48.194;11.546;2023-02-01T09:06:49;5.70;;;2.78;;
29238;SDS011;16267;48.194;11.546;2023-02-01T09:09:15;5.50;;;2.40;;
29238;SDS011;16267;48.194;11.546;2023-02-01T09:11:41;3.88;;;2.35;;
29238;SDS011;16267;48.194;11.546;2023-02-01T09:14:07;6.15;;;2.58;;
29238;SDS011;16267;48.194;11.546;2023-02-01T09:16:32;3.92;;;2.28;;
29238;SDS011;16267;48.194;11.546;2023-02-01T09:18:58;5.00;;;2.47;;
29238;SDS011;16267;48.194;11.546;2023-02-01T09:21:24;12.00;;;4.80;;
29238;SDS011;16267;48.194;11.546;2023-02-01T09:23:50;4.20;;;2.70;;
29238;SDS011;16267;48.194;11.546;2023-02-01T09:26:16;4.65;;;3.15;;
29238;SDS011;16267;48.194;11.546;2023-02-01T09:28:43;3.67;;;2.50;;
29238;SDS011;16267;48.194;11.546;2023-02-01T09:31:09;5.75;;;3.08;;
29238;SDS011;16267;48.194;11.546;2023-02-01T09:33:35;6.28;;;2.90;;
29238;SDS011;16267;48.194;11.546;2023-02-01T09:36:03;6.30;;;2.90;;
29238;SDS011;16267;48.194;11.546;2023-02-01T09:38:30;9.90;;;3.17;;
29238;SDS011;16267;48.194;11.546;2023-02-01T09:40:57;5.55;;;2.72;;
29238;SDS011;16267;48.194;11.546;2023-02-01T09:46:28;5.40;;;2.92;;
29238;SDS011;16267;48.194;11.546;2023-02-01T09:48:57;5.10;;;2.72;;
29238;SDS011;16267;48.194;11.546;2023-02-01T09:51:36;3.70;;;2.75;;
29238;SDS011;16267;48.194;11.546;2023-02-01T09:54:29;4.13;;;2.80;;
29238;SDS011;16267;48.194;11.546;2023-02-01T09:57:14;3.88;;;2.42;;
29238;SDS011;16267;48.194;11.546;2023-02-01T09:59:49;5.07;;;3.50;;
29238;SDS011;16267;48.194;11.546;2023-02-01T10:02:23;3.97;;;2.55;;
29238;SDS011;16267;48.194;11.546;2023-02-01T10:04:54;6.30;;;2.58;;
29238;SDS011;16267;48.194;11.546;2023-02-01T10:13:36;5.50;;;3.00;;
29238;SDS011;16267;48.194;11.546;2023-02-01T10:19:35;6.88;;;3.00;;
29238;SDS011;16267;48.194;11.546;2023-02-01T10:22:55;6.05;;;2.97;;
29238;SDS011;16267;48.194;11.546;2023-02-01T10:25:26;5.93;;;3.42;;
29238;SDS011;16267;48.194;11.546;2023-02-01T10:28:07;7.88;;;3.78;;
29238;SDS011;16267;48.194;11.546;2023-02-01T10:30:42;4.55;;;3.03;;
29238;SDS011;16267;48.194;11.546;2023-02-01T10:33:25;6.22;;;4.10;;
29238;SDS011;16267;48.194;11.546;2023-02-01T10:36:28;7.68;;;3.65;;
29238;SDS011;16267;48.194;11.546;2023-02-01T10:39:01;7.03;;;4.45;;
29238;SDS011;16267;48.194;11.546;2023-02-01T10:41:33;7.80;;;4.07;;
29238;SDS011;16267;48.194;11.546;2023-02-01T10:44:07;8.05;;;4.53;;
29238;SDS011;16267;48.194;11.546;2023-02-01T10:46:39;7.72;;;3.60;;
29238;SDS011;16267;48.194;11.546;2023-02-01T10:49:05;10.38;;;4.78;;
29238;SDS011;16267;48.194;11.546;2023-02-01T10:51:53;4.78;;;2.60;;
29238;SDS011;16267;48.194;11.546;2023-02-01T10:54:34;7.85;;;3.40;;
29238;SDS011;16267;48.194;11.546;2023-02-01T10:57:03;6.70;;;3.15;;
29238;SDS011;16267;48.194;11.546;2023-02-01T10:59:34;6.32;;;3.25;;
29238;SDS011;16267;48.194;11.546;2023-02-01T11:02:25;5.18;;;2.92;;
29238;SDS011;16267;48.194;11.546;2023-02-01T11:05:02;7.65;;;3.28;;
29238;SDS011;16267;48.194;11.546;2023-02-01T11:07:37;6.22;;;3.60;;
29238;SDS011;16267;48.194;11.546;2023-02-01T11:10:33;9.65;;;3.55;;
29238;SDS011;16267;48.194;11.546;2023-02-01T11:13:08;12.80;;;5.72;;
29238;SDS011;16267;48.194;11.546;2023-02-01T11:15:43;6.68;;;3.60;;
29238;SDS011;16267;48.194;11.546;2023-02-01T11:18:19;5.53;;;2.83;;
29238;SDS011;16267;48.194;11.546;2023-02-01T11:20:55;5.20;;;2.95;;
29238;SDS011;16267;48.194;11.546;2023-02-01T11:23:23;5.57;;;3.22;;
29238;SDS011;16267;48.194;11.546;2023-02-01T11:25:55;5.95;;;3.90;;
29238;SDS011;16267;48.194;11.546;2023-02-01T11:28:25;10.65;;;5.32;;
29238;SDS011;16267;48.194;11.546;2023-02-01T11:33:29;6.97;;;3.88;;
29238;SDS011;16267;48.194;11.546;2023-02-01T11:38:39;6.03;;;3.65;;
29238;SDS011;16267;48.194;11.546;2023-02-01T11:41:12;5.72;;;3.78;;
29238;SDS011;16267;48.194;11.546;2023-02-01T11:46:19;4.93;;;2.83;;
29238;SDS011;16267;48.194;11.546;2023-02-01T11:48:50;5.78;;;3.78;;
29238;SDS011;16267;48.194;11.546;2023-02-01T11:51:26;15.07;;;4.28;;
29238;SDS011;16267;48.194;11.546;2023-02-01T11:57:10;8.15;;;4.18;;
29238;SDS011;16267;48.194;11.546;2023-02-01T12:09:09;7.18;;;4.20;;
29238;SDS011;16267;48.194;11.546;2023-02-01T12:26:33;12.38;;;3.90;;
29238;SDS011;16267;48.194;11.546;2023-02-01T12:35:38;10.25;;;4.47;;
29238;SDS011;16267;48.194;11.546;2023-02-01T12:41:19;12.32;;;4.47;;
29238;SDS011;16267;48.194;11.546;2023-02-01T12:46:43;10.88;;;4.03;;
29238;SDS011;16267;48.194;11.546;2023-02-01T12:49:34;9.18;;;3.50;;
29238;SDS011;16267;48.194;11.546;2023-02-01T12:52:20;11.43;;;3.50;;
29238;SDS011;16267;48.194;11.546;2023-02-01T12:55:33;10.15;;;3.47;;
29238;SDS011;16267;48.194;11.546;2023-02-01T12:58:11;10.07;;;3.30;;
29238;SDS011;16267;48.194;11.546;2023-02-01T13:00:44;9.77;;;3.42;;
29238;SDS011;16267;48.194;11.546;2023-02-01T13:04:01;10.25;;;3.47;;
29238;SDS011;16267;48.194;11.546;2023-02-01T13:10:38;11.70;;;3.35;;
29238;SDS011;16267;48.194;11.546;2023-02-01T13:13:19;9.70;;;2.88;;
29238;SDS011;16267;48.194;11.546;2023-02-01T13:21:36;9.80;;;2.80;;
29238;SDS011;16267;48.194;11.546;2023-02-01T13:27:00;7.97;;;3.23;;
29238;SDS011;16267;48.194;11.546;2023-02-01T13:29:27;10.80;;;3.22;;
29238;SDS011;16267;48.194;11.546;2023-02-01T13:41:15;8.73;;;3.72;;
29238;SDS011;16267;48.194;11.546;2023-02-01T13:44:16;5.22;;;3.40;;
29238;SDS011;16267;48.194;11.546;2023-02-01T13:47:00;7.85;;;2.97;;
29238;SDS011;16267;48.194;11.546;2023-02-01T13:49:30;6.15;;;3.45;;
29238;SDS011;16267;48.194;11.546;2023-02-01T13:52:06;8.32;;;3.50;;
29238;SDS011;16267;48.194;11.546;2023-02-01T13:54:46;8.13;;;3.70;;
29238;SDS011;16267;48.194;11.546;2023-02-01T13:57:31;6.20;;;3.33;;
29238;SDS011;16267;48.194;11.546;2023-02-01T14:26:49;5.57;;;2.47;;
29238;SDS011;16267;48.194;11.546;2023-02-01T14:29:31;9.27;;;3.70;;
29238;SDS011;16267;48.194;11.546;2023-02-01T14:35:05;10.18;;;3.28;;
29238;SDS011;16267;48.194;11.546;2023-02-01T14:37:44;7.47;;;3.35;;
29238;SDS011;16267;48.194;11.546;2023-02-01T15:01:53;9.18;;;2.97;;
29238;SDS011;16267;48.194;11.546;2023-02-01T15:04:13;6.32;;;2.50;;
29238;SDS011;16267;48.194;11.546;2023-02-01T15:07:03;9.32;;;2.92;;
29238;SDS011;16267;48.194;11.546;2023-02-01T15:14:40;9.10;;;2.70;;
29238;SDS011;16267;48.194;11.546;2023-02-01T15:17:22;5.05;;;2.72;;
29238;SDS011;16267;48.194;11.546;2023-02-01T15:19:52;10.90;;;2.53;;
29238;SDS011;16267;48.194;11.546;2023-02-01T15:22:20;6.35;;;2.70;;
29238;SDS011;16267;48.194;11.546;2023-02-01T15:24:51;8.48;;;2.85;;
29238;SDS011;16267;48.194;11.546;2023-02-01T15:27:19;7.53;;;3.33;;
29238;SDS011;16267;48.194;11.546;2023-02-01T15:29:45;11.32;;;2.65;;
29238;SDS011;16267;48.194;11.546;2023-02-01T15:35:30;6.82;;;2.55;;
29238;SDS011;16267;48.194;11.546;2023-02-01T15:41:31;8.45;;;2.20;;
29238;SDS011;16267;48.194;11.546;2023-02-01T15:46:39;9.40;;;2.53;;
29238;SDS011;16267;48.194;11.546;2023-02-01T15:49:52;9.02;;;3.28;;
29238;SDS011;16267;48.194;11.546;2023-02-01T15:52:08;8.27;;;2.35;;
29238;SDS011;16267;48.194;11.546;2023-02-01T15:54:50;8.15;;;2.15;;
29238;SDS011;16267;48.194;11.546;2023-02-01T15:57:22;6.47;;;2.20;;
29238;SDS011;16267;48.194;11.546;2023-02-01T16:00:22;5.57;;;2.03;;
29238;SDS011;16267;48.194;11.546;2023-02-01T16:03:00;5.90;;;2.42;;
29238;SDS011;16267;48.194;11.546;2023-02-01T16:05:33;7.45;;;2.47;;
29238;SDS011;16267;48.194;11.546;2023-02-01T16:10:38;9.23;;;2.72;;
29238;SDS011;16267;48.194;11.546;2023-02-01T16:13:06;8.40;;;2.42;;
29238;SDS011;16267;48.194;11.546;2023-02-01T16:15:32;7.60;;;2.10;;
29238;SDS011;16267;48.194;11.546;2023-02-01T16:17:58;5.50;;;2.25;;
29238;SDS011;16267;48.194;11.546;2023-02-01T16:20:24;7.60;;;2.63;;
29238;SDS011;16267;48.194;11.546;2023-02-01T16:22:50;9.80;;;2.95;;
29238;SDS011;16267;48.194;11.546;2023-02-01T16:25:16;8.32;;;2.30;;
29238;SDS011;16267;48.194;11.546;2023-02-01T16:27:42;8.43;;;2.75;;
29238;SDS011;16267;48.194;11.546;2023-02-01T16:30:08;9.75;;;2.38;;
29238;SDS011;16267;48.194;11.546;2023-02-01T16:32:34;9.52;;;2.20;;
29238;SDS011;16267;48.194;11.546;2023-02-01T16:35:03;6.95;;;2.05;;
29238;SDS011;16267;48.194;11.546;2023-02-01T16:37:40;5.38;;;2.20;;
29238;SDS011;16267;48.194;11.546;2023-02-01T16:40:11;12.25;;;2.15;;
29238;SDS011;16267;48.194;11.546;2023-02-01T16:42:42;6.53;;;2.00;;
29238;SDS011;16267;48.194;11.546;2023-02-01T16:45:08;12.55;;;2.35;;
29238;SDS011;16267;48.194;11.546;2023-02-01T16:47:36;11.70;;;2.90;;
29238;SDS011;16267;48.194;11.546;2023-02-01T16:50:05;12.98;;;2.80;;
29238;SDS011;16267;48.194;11.546;2023-02-01T16:52:46;15.88;;;2.75;;
29238;SDS011;16267;48.194;11.546;2023-02-01T16:55:13;9.52;;;2.50;;
29238;SDS011;16267;48.194;11.546;2023-02-01T16:57:41;8.02;;;2.38;;
29238;SDS011;16267;48.194;11.546;2023-02-01T17:00:08;7.10;;;2.40;;
29238;SDS011;16267;48.194;11.546;2023-02-01T17:02:38;8.75;;;2.30;;
29238;SDS011;16267;48.194;11.546;2023-02-01T17:05:04;13.25;;;2.85;;
29238;SDS011;16267;48.194;11.546;2023-02-01T17:07:31;12.80;;;2.97;;
29238;SDS011;16267;48.194;11.546;2023-02-01T17:09:57;7.75;;;2.75;;
29238;SDS011;16267;48.194;11.546;2023-02-01T17:12:24;9.02;;;2.40;;
29238;SDS011;16267;48.194;11.546;2023-02-01T17:14:54;8.50;;;2.35;;
29238;SDS011;16267;48.194;11.546;2023-02-01T17:17:22;9.10;;;2.22;;
29238;SDS011;16267;48.194;11.546;2023-02-01T17:19:49;8.68;;;2.38;;
29238;SDS011;16267;48.194;11.546;2023-02-01T17:22:18;10.20;;;2.72;;
29238;SDS011;16267;48.194;11.546;2023-02-01T17:24:45;15.25;;;2.92;;
29238;SDS011;16267;48.194;11.546;2023-02-01T17:27:11;8.02;;;2.60;;
29238;SDS011;16267;48.194;11.546;2023-02-01T17:29:38;8.02;;;2.58;;
29238;SDS011;16267;48.194;11.546;2023-02-01T17:32:04;10.55;;;2.63;;
29238;SDS011;16267;48.194;11.546;2023-02-01T17:34:38;6.38;;;3.05;;
29238;SDS011;16267;48.194;11.546;2023-02-01T17:37:05;13.93;;;3.53;;
29238;SDS011;16267;48.194;11.546;2023-02-01T17:39:39;10.38;;;2.75;;
29238;SDS011;16267;48.194;11.546;2023-02-01T17:42:21;10.32;;;2.25;;
29238;SDS011;16267;48.194;11.546;2023-02-01T17:44:54;9.77;;;2.80;;
29238;SDS011;16267;48.194;11.546;2023-02-01T17:47:26;12.23;;;3.63;;
29238;SDS011;16267;48.194;11.546;2023-02-01T17:49:52;8.88;;;2.53;;
29238;SDS011;16267;48.194;11.546;2023-02-01T17:52:20;16.13;;;2.63;;
29238;SDS011;16267;48.194;11.546;2023-02-01T17:54:49;9.57;;;2.08;;
29238;SDS011;16267;48.194;11.546;2023-02-01T17:57:18;9.30;;;2.95;;